sensor_id;sensor_type;location;lat;lon;timestamp;pressure;altitude;pressure_sealevel;temperature
45034;BMP280;30771;47.988;-4.186;2022-12-15T07:02:27;98879.16;;;3.00
45034;BMP280;30771;47.988;-4.186;2022-12-15T07:04:52;98866.34;;;2.98
45034;BMP280;30771;47.988;-4.186;2022-12-15T07:07:17;98839.06;;;2.88
45034;BMP280;30771;47.988;-4.186;2022-12-15T07:09:43;98837.91;;;2.90
45034;BMP280;30771;47.988;-4.186;2022-12-15T07:12:08;98814.72;;;2.89
45034;BMP280;30771;47.988;-4.186;2022-12-15T07:14:34;98807.53;;;2.91
45034;BMP280;30771;47.988;-4.186;2022-12-15T07:16:59;98786.97;;;2.96
45034;BMP280;30771;47.988;-4.186;2022-12-15T07:19:24;98785.38;;;2.95
45034;BMP280;30771;47.988;-4.186;2022-12-15T07:21:49;98813.97;;;2.95
45034;BMP280;30771;47.988;-4.186;2022-12-15T07:24:14;98776.00;;;3.00
45034;BMP280;30771;47.988;-4.186;2022-12-15T07:26:39;98783.22;;;3.05
45034;BMP280;30771;47.988;-4.186;2022-12-15T07:29:05;98795.88;;;3.08
45034;BMP280;30771;47.988;-4.186;2022-12-15T07:31:30;98798.72;;;3.13
45034;BMP280;30771;47.988;-4.186;2022-12-15T07:33:56;98825.78;;;3.18
45034;BMP280;30771;47.988;-4.186;2022-12-15T07:36:21;98824.97;;;3.24
45034;BMP280;30771;47.988;-4.186;2022-12-15T07:38:46;98846.84;;;3.30
45034;BMP280;30771;47.988;-4.186;2022-12-15T07:41:11;98860.28;;;3.33
45034;BMP280;30771;47.988;-4.186;2022-12-15T07:43:37;98876.31;;;3.37
45034;BMP280;30771;47.988;-4.186;2022-12-15T07:46:02;98886.97;;;3.42
45034;BMP280;30771;47.988;-4.186;2022-12-15T07:48:27;98907.19;;;3.46
45034;BMP280;30771;47.988;-4.186;2022-12-15T07:50:53;98938.47;;;3.53
45034;BMP280;30771;47.988;-4.186;2022-12-15T07:53:18;98957.91;;;3.57
45034;BMP280;30771;47.988;-4.186;2022-12-15T07:55:43;98982.94;;;3.58
45034;BMP280;30771;47.988;-4.186;2022-12-15T07:58:08;98996.94;;;3.57
45034;BMP280;30771;47.988;-4.186;2022-12-15T08:00:33;99011.13;;;3.55
45034;BMP280;30771;47.988;-4.186;2022-12-15T08:03:00;99024.31;;;3.53
45034;BMP280;30771;47.988;-4.186;2022-12-15T08:05:25;99038.94;;;3.54
45034;BMP280;30771;47.988;-4.186;2022-12-15T08:07:50;99051.16;;;3.54
45034;BMP280;30771;47.988;-4.186;2022-12-15T08:10:15;99063.16;;;3.55
45034;BMP280;30771;47.988;-4.186;2022-12-15T08:12:40;99080.19;;;3.57
45034;BMP280;30771;47.988;-4.186;2022-12-15T08:15:06;99097.44;;;3.58
45034;BMP280;30771;47.988;-4.186;2022-12-15T08:17:31;99115.44;;;3.60
45034;BMP280;30771;47.988;-4.186;2022-12-15T08:19:56;99124.06;;;3.60
45034;BMP280;30771;47.988;-4.186;2022-12-15T08:22:21;99130.88;;;3.61
45034;BMP280;30771;47.988;-4.186;2022-12-15T08:24:47;99139.34;;;3.63
45034;BMP280;30771;47.988;-4.186;2022-12-15T08:27:12;99140.31;;;3.62
45034;BMP280;30771;47.988;-4.186;2022-12-15T08:29:37;99144.34;;;3.65
45034;BMP280;30771;47.988;-4.186;2022-12-15T08:32:02;99146.75;;;3.66
45034;BMP280;30771;47.988;-4.186;2022-12-15T08:34:27;99148.38;;;3.67
45034;BMP280;30771;47.988;-4.186;2022-12-15T08:36:53;99152.19;;;3.71
45034;BMP280;30771;47.988;-4.186;2022-12-15T08:39:18;99155.44;;;3.73
45034;BMP280;30771;47.988;-4.186;2022-12-15T08:41:43;99164.50;;;3.77
45034;BMP280;30771;47.988;-4.186;2022-12-15T08:44:08;99181.34;;;3.81
45034;BMP280;30771;47.988;-4.186;2022-12-15T08:46:34;99194.97;;;3.83
45034;BMP280;30771;47.988;-4.186;2022-12-15T08:48:59;99194.63;;;3.86
45034;BMP280;30771;47.988;-4.186;2022-12-15T08:51:25;99198.66;;;3.89
45034;BMP280;30771;47.988;-4.186;2022-12-15T08:53:50;99205.31;;;3.91
45034;BMP280;30771;47.988;-4.186;2022-12-15T08:56:18;99206.72;;;3.94
45034;BMP280;30771;47.988;-4.186;2022-12-15T08:58:44;99208.34;;;3.95
45034;BMP280;30771;47.988;-4.186;2022-12-15T09:01:11;99224.38;;;3.98
45034;BMP280;30771;47.988;-4.186;2022-12-15T09:03:36;99232.66;;;4.02
45034;BMP280;30771;47.988;-4.186;2022-12-15T09:06:02;99244.50;;;4.04
45034;BMP280;30771;47.988;-4.186;2022-12-15T09:08:28;99248.34;;;4.08
45034;BMP280;30771;47.988;-4.186;2022-12-15T09:10:53;99246.22;;;4.12
45034;BMP280;30771;47.988;-4.186;2022-12-15T09:13:18;99254.59;;;4.14
45034;BMP280;30771;47.988;-4.186;2022-12-15T09:15:43;99255.03;;;4.17
45034;BMP280;30771;47.988;-4.186;2022-12-15T09:18:08;99259.88;;;4.20
45034;BMP280;30771;47.988;-4.186;2022-12-15T09:20:33;99268.16;;;4.24
45034;BMP280;30771;47.988;-4.186;2022-12-15T09:22:59;99267.97;;;4.25
45034;BMP280;30771;47.988;-4.186;2022-12-15T09:25:24;99277.06;;;4.30
45034;BMP280;30771;47.988;-4.186;2022-12-15T09:27:49;99288.09;;;4.32
45034;BMP280;30771;47.988;-4.186;2022-12-15T09:30:14;99293.91;;;4.34
45034;BMP280;30771;47.988;-4.186;2022-12-15T09:32:39;99305.94;;;4.35
45034;BMP280;30771;47.988;-4.186;2022-12-15T09:35:04;99313.75;;;4.35
45034;BMP280;30771;47.988;-4.186;2022-12-15T09:37:30;99318.97;;;4.35
45034;BMP280;30771;47.988;-4.186;2022-12-15T09:39:55;99330.16;;;4.35
45034;BMP280;30771;47.988;-4.186;2022-12-15T09:42:27;99335.38;;;4.35
45034;BMP280;30771;47.988;-4.186;2022-12-15T09:45:07;99324.81;;;4.37
45034;BMP280;30771;47.988;-4.186;2022-12-15T09:48:19;99347.88;;;4.40
45034;BMP280;30771;47.988;-4.186;2022-12-15T09:50:22;99345.09;;;4.41
45034;BMP280;30771;47.988;-4.186;2022-12-15T09:52:49;99350.13;;;4.43
45034;BMP280;30771;47.988;-4.186;2022-12-15T09:55:16;99357.94;;;4.43
45034;BMP280;30771;47.988;-4.186;2022-12-15T09:57:43;99350.75;;;4.45
45034;BMP280;30771;47.988;-4.186;2022-12-15T10:08:03;99342.81;;;4.53
45034;BMP280;30771;47.988;-4.186;2022-12-15T10:11:12;99339.84;;;4.56
45034;BMP280;30771;47.988;-4.186;2022-12-15T10:13:21;99344.69;;;4.59
45034;BMP280;30771;47.988;-4.186;2022-12-15T10:15:58;99349.72;;;4.60
45034;BMP280;30771;47.988;-4.186;2022-12-15T10:18:25;99346.91;;;4.62
45034;BMP280;30771;47.988;-4.186;2022-12-15T10:20:52;99355.19;;;4.65
45034;BMP280;30771;47.988;-4.186;2022-12-15T10:23:18;99373.47;;;4.72
45034;BMP280;30771;47.988;-4.186;2022-12-15T10:25:48;99372.13;;;4.76
45034;BMP280;30771;47.988;-4.186;2022-12-15T10:33:24;99377.69;;;4.87
45034;BMP280;30771;47.988;-4.186;2022-12-15T10:35:53;99387.34;;;4.93
45034;BMP280;30771;47.988;-4.186;2022-12-15T10:38:29;99370.97;;;4.99
45034;BMP280;30771;47.988;-4.186;2022-12-15T10:41:00;99379.41;;;5.01
45034;BMP280;30771;47.988;-4.186;2022-12-15T10:43:30;99373.81;;;5.05
45034;BMP280;30771;47.988;-4.186;2022-12-15T10:46:03;99386.47;;;5.08
45034;BMP280;30771;47.988;-4.186;2022-12-15T10:48:28;99379.53;;;5.15
45034;BMP280;30771;47.988;-4.186;2022-12-15T10:51:05;99394.63;;;5.19
45034;BMP280;30771;47.988;-4.186;2022-12-15T10:53:34;99403.66;;;5.23
45034;BMP280;30771;47.988;-4.186;2022-12-15T10:56:03;99403.47;;;5.25
45034;BMP280;30771;47.988;-4.186;2022-12-15T10:58:30;99397.09;;;5.27
45034;BMP280;30771;47.988;-4.186;2022-12-15T11:01:06;99391.50;;;5.30
45034;BMP280;30771;47.988;-4.186;2022-12-15T11:03:34;99394.72;;;5.32
45034;BMP280;30771;47.988;-4.186;2022-12-15T11:06:00;99392.72;;;5.34
45034;BMP280;30771;47.988;-4.186;2022-12-15T11:08:25;99389.16;;;5.35
45034;BMP280;30771;47.988;-4.186;2022-12-15T11:10:55;99394.97;;;5.37
45034;BMP280;30771;47.988;-4.186;2022-12-15T11:13:21;99396.59;;;5.38
45034;BMP280;30771;47.988;-4.186;2022-12-15T11:15:50;99392.97;;;5.39
45034;BMP280;30771;47.988;-4.186;2022-12-15T11:18:26;99396.19;;;5.41
45034;BMP280;30771;47.988;-4.186;2022-12-15T11:21:54;99399.59;;;5.42
45034;BMP280;30771;47.988;-4.186;2022-12-15T11:29:41;99413.88;;;5.46
45034;BMP280;30771;47.988;-4.186;2022-12-15T11:31:45;99420.91;;;5.45
45034;BMP280;30771;47.988;-4.186;2022-12-15T11:34:14;99421.91;;;5.44
45034;BMP280;30771;47.988;-4.186;2022-12-15T11:39:20;99444.41;;;5.45
45034;BMP280;30771;47.988;-4.186;2022-12-15T11:41:50;99424.34;;;5.46
45034;BMP280;30771;47.988;-4.186;2022-12-15T11:44:21;99432.53;;;5.43
45034;BMP280;30771;47.988;-4.186;2022-12-15T11:49:58;99420.50;;;5.42
45034;BMP280;30771;47.988;-4.186;2022-12-15T11:54:32;99435.59;;;5.46
45034;BMP280;30771;47.988;-4.186;2022-12-15T11:57:29;99429.38;;;5.47
45034;BMP280;30771;47.988;-4.186;2022-12-15T12:00:02;99429.19;;;5.49
45034;BMP280;30771;47.988;-4.186;2022-12-15T12:02:42;99405.50;;;5.50
45034;BMP280;30771;47.988;-4.186;2022-12-15T12:07:51;99393.94;;;5.59
45034;BMP280;30771;47.988;-4.186;2022-12-15T12:18:05;99371.66;;;5.70
45034;BMP280;30771;47.988;-4.186;2022-12-15T12:20:38;99371.50;;;5.71
45034;BMP280;30771;47.988;-4.186;2022-12-15T12:23:13;99364.28;;;5.73
45034;BMP280;30771;47.988;-4.186;2022-12-15T12:25:42;99341.59;;;5.74
45034;BMP280;30771;47.988;-4.186;2022-12-15T12:30:38;99344.44;;;5.79
45034;BMP280;30771;47.988;-4.186;2022-12-15T12:33:16;99316.94;;;5.83
45034;BMP280;30771;47.988;-4.186;2022-12-15T12:35:46;99306.09;;;5.86
45034;BMP280;30771;47.988;-4.186;2022-12-15T12:38:13;99293.44;;;5.90
45034;BMP280;30771;47.988;-4.186;2022-12-15T12:40:51;99285.22;;;5.93
45034;BMP280;30771;47.988;-4.186;2022-12-15T12:43:21;99273.59;;;5.95
45034;BMP280;30771;47.988;-4.186;2022-12-15T12:45:51;99268.97;;;5.97
45034;BMP280;30771;47.988;-4.186;2022-12-15T12:48:29;99265.53;;;5.97
45034;BMP280;30771;47.988;-4.186;2022-12-15T12:53:36;99226.97;;;5.99
45034;BMP280;30771;47.988;-4.186;2022-12-15T12:56:01;99230.59;;;5.98
45034;BMP280;30771;47.988;-4.186;2022-12-15T13:03:28;99186.75;;;6.00
45034;BMP280;30771;47.988;-4.186;2022-12-15T13:05:54;99178.91;;;6.00
45034;BMP280;30771;47.988;-4.186;2022-12-15T13:08:25;99186.59;;;6.01
45034;BMP280;30771;47.988;-4.186;2022-12-15T13:10:50;99166.47;;;6.02
45034;BMP280;30771;47.988;-4.186;2022-12-15T13:16:01;99149.81;;;6.03
45034;BMP280;30771;47.988;-4.186;2022-12-15T13:18:28;99147.78;;;6.05
45034;BMP280;30771;47.988;-4.186;2022-12-15T13:21:43;99149.03;;;6.09
45034;BMP280;30771;47.988;-4.186;2022-12-15T13:23:58;99141.97;;;6.09
45034;BMP280;30771;47.988;-4.186;2022-12-15T13:26:28;99141.56;;;6.12
45034;BMP280;30771;47.988;-4.186;2022-12-15T13:28:54;99132.53;;;6.15
45034;BMP280;30771;47.988;-4.186;2022-12-15T13:38:57;99154.03;;;6.30
45034;BMP280;30771;47.988;-4.186;2022-12-15T13:41:22;99150.03;;;6.34
45034;BMP280;30771;47.988;-4.186;2022-12-15T13:43:47;99157.47;;;6.37
45034;BMP280;30771;47.988;-4.186;2022-12-15T13:46:15;99180.00;;;6.38
45034;BMP280;30771;47.988;-4.186;2022-12-15T13:48:45;99184.00;;;6.40
45034;BMP280;30771;47.988;-4.186;2022-12-15T13:51:21;99208.94;;;6.43
45034;BMP280;30771;47.988;-4.186;2022-12-15T13:53:51;99206.94;;;6.45
45034;BMP280;30771;47.988;-4.186;2022-12-15T13:56:22;99210.97;;;6.47
45034;BMP280;30771;47.988;-4.186;2022-12-15T13:58:51;99212.16;;;6.51
45034;BMP280;30771;47.988;-4.186;2022-12-15T14:01:23;99209.34;;;6.53
45034;BMP280;30771;47.988;-4.186;2022-12-15T14:03:56;99198.66;;;6.54
45034;BMP280;30771;47.988;-4.186;2022-12-15T14:06:21;99199.47;;;6.55
45034;BMP280;30771;47.988;-4.186;2022-12-15T14:08:46;99192.41;;;6.55
45034;BMP280;30771;47.988;-4.186;2022-12-15T14:11:15;99197.66;;;6.55
45034;BMP280;30771;47.988;-4.186;2022-12-15T14:13:44;99198.47;;;6.56
45034;BMP280;30771;47.988;-4.186;2022-12-15T14:18:37;99208.53;;;6.52
45034;BMP280;30771;47.988;-4.186;2022-12-15T14:21:16;99219.00;;;6.52
45034;BMP280;30771;47.988;-4.186;2022-12-15T14:23:42;99223.66;;;6.50
45034;BMP280;30771;47.988;-4.186;2022-12-15T14:26:09;99210.75;;;6.49
45034;BMP280;30771;47.988;-4.186;2022-12-15T14:28:35;99205.53;;;6.49
45034;BMP280;30771;47.988;-4.186;2022-12-15T14:31:02;99217.00;;;6.48
45034;BMP280;30771;47.988;-4.186;2022-12-15T14:33:28;99205.72;;;6.47
45034;BMP280;30771;47.988;-4.186;2022-12-15T14:35:55;99210.16;;;6.47
45034;BMP280;30771;47.988;-4.186;2022-12-15T14:38:23;99212.97;;;6.45
45034;BMP280;30771;47.988;-4.186;2022-12-15T14:40:50;99215.16;;;6.42
45034;BMP280;30771;47.988;-4.186;2022-12-15T14:43:19;99223.63;;;6.37
45034;BMP280;30771;47.988;-4.186;2022-12-15T14:45:45;99232.66;;;6.35
45034;BMP280;30771;47.988;-4.186;2022-12-15T14:48:17;99239.91;;;6.33
45034;BMP280;30771;47.988;-4.186;2022-12-15T14:50:46;99246.31;;;6.30
45034;BMP280;30771;47.988;-4.186;2022-12-15T14:53:15;99243.28;;;6.27
45034;BMP280;30771;47.988;-4.186;2022-12-15T14:55:41;99249.53;;;6.26
45034;BMP280;30771;47.988;-4.186;2022-12-15T15:00:51;99257.34;;;6.19
45034;BMP280;30771;47.988;-4.186;2022-12-15T15:03:18;99261.97;;;6.17
45034;BMP280;30771;47.988;-4.186;2022-12-15T15:05:54;99269.22;;;6.15
45034;BMP280;30771;47.988;-4.186;2022-12-15T15:08:29;99267.59;;;6.14
45034;BMP280;30771;47.988;-4.186;2022-12-15T15:10:55;99270.41;;;6.13
45034;BMP280;30771;47.988;-4.186;2022-12-15T15:13:24;99263.78;;;6.10
45034;BMP280;30771;47.988;-4.186;2022-12-15T15:15:54;99269.22;;;6.09
45034;BMP280;30771;47.988;-4.186;2022-12-15T15:18:22;99269.59;;;6.06
45034;BMP280;30771;47.988;-4.186;2022-12-15T15:20:50;99276.81;;;6.04
45034;BMP280;30771;47.988;-4.186;2022-12-15T15:23:16;99268.19;;;6.03
45034;BMP280;30771;47.988;-4.186;2022-12-15T15:25:54;99273.56;;;6.02
45034;BMP280;30771;47.988;-4.186;2022-12-15T15:28:24;99269.53;;;5.99
45034;BMP280;30771;47.988;-4.186;2022-12-15T15:30:53;99273.19;;;5.98
45034;BMP280;30771;47.988;-4.186;2022-12-15T15:33:19;99275.22;;;5.96
45034;BMP280;30771;47.988;-4.186;2022-12-15T15:35:45;99275.38;;;5.95
45034;BMP280;30771;47.988;-4.186;2022-12-15T15:38:19;99283.41;;;5.93
45034;BMP280;30771;47.988;-4.186;2022-12-15T15:43:16;99291.47;;;5.92
45034;BMP280;30771;47.988;-4.186;2022-12-15T15:45:41;99297.66;;;5.91
45034;BMP280;30771;47.988;-4.186;2022-12-15T15:48:08;99290.03;;;5.89
45034;BMP280;30771;47.988;-4.186;2022-12-15T15:50:34;99304.69;;;5.90
45034;BMP280;30771;47.988;-4.186;2022-12-15T15:52:59;99316.16;;;5.89
45034;BMP280;30771;47.988;-4.186;2022-12-15T15:55:26;99304.09;;;5.88
45034;BMP280;30771;47.988;-4.186;2022-12-15T15:57:52;99305.06;;;5.87
45034;BMP280;30771;47.988;-4.186;2022-12-15T16:00:19;99310.13;;;5.89
45034;BMP280;30771;47.988;-4.186;2022-12-15T16:02:45;99310.28;;;5.87
45034;BMP280;30771;47.988;-4.186;2022-12-15T16:05:10;99311.31;;;5.86
45034;BMP280;30771;47.988;-4.186;2022-12-15T16:07:35;99303.47;;;5.86
45034;BMP280;30771;47.988;-4.186;2022-12-15T16:10:00;99300.25;;;5.84
45034;BMP280;30771;47.988;-4.186;2022-12-15T16:12:30;99308.09;;;5.84
45034;BMP280;30771;47.988;-4.186;2022-12-15T16:14:57;99302.88;;;5.84
45034;BMP280;30771;47.988;-4.186;2022-12-15T16:17:22;99319.31;;;5.84
45034;BMP280;30771;47.988;-4.186;2022-12-15T16:19:47;99302.88;;;5.84
45034;BMP280;30771;47.988;-4.186;2022-12-15T16:22:14;99299.22;;;5.85
45034;BMP280;30771;47.988;-4.186;2022-12-15T16:24:40;99296.63;;;5.85
45034;BMP280;30771;47.988;-4.186;2022-12-15T16:27:07;99307.31;;;5.84
45034;BMP280;30771;47.988;-4.186;2022-12-15T16:29:33;99298.66;;;5.83
45034;BMP280;30771;47.988;-4.186;2022-12-15T16:31:58;99297.84;;;5.82
45034;BMP280;30771;47.988;-4.186;2022-12-15T16:34:23;99296.03;;;5.83
45034;BMP280;30771;47.988;-4.186;2022-12-15T16:36:49;99300.44;;;5.82
45034;BMP280;30771;47.988;-4.186;2022-12-15T16:39:33;99305.88;;;5.81
45034;BMP280;30771;47.988;-4.186;2022-12-15T16:41:58;99305.06;;;5.80
45034;BMP280;30771;47.988;-4.186;2022-12-15T16:44:24;99306.06;;;5.79
45034;BMP280;30771;47.988;-4.186;2022-12-15T16:46:49;99301.03;;;5.78
45034;BMP280;30771;47.988;-4.186;2022-12-15T16:49:14;99307.25;;;5.77
45034;BMP280;30771;47.988;-4.186;2022-12-15T16:51:45;99300.22;;;5.77
45034;BMP280;30771;47.988;-4.186;2022-12-15T16:54:21;99297.59;;;5.77
45034;BMP280;30771;47.988;-4.186;2022-12-15T16:56:47;99293.41;;;5.76
45034;BMP280;30771;47.988;-4.186;2022-12-15T16:59:15;99297.59;;;5.77
45034;BMP280;30771;47.988;-4.186;2022-12-15T17:01:41;99294.19;;;5.77
45034;BMP280;30771;47.988;-4.186;2022-12-15T17:04:06;99296.19;;;5.75
45034;BMP280;30771;47.988;-4.186;2022-12-15T17:06:31;99304.84;;;5.75
45034;BMP280;30771;47.988;-4.186;2022-12-15T17:08:56;99299.59;;;5.75
45034;BMP280;30771;47.988;-4.186;2022-12-15T17:11:22;99298.78;;;5.75
45034;BMP280;30771;47.988;-4.186;2022-12-15T17:13:48;99305.66;;;5.76
45034;BMP280;30771;47.988;-4.186;2022-12-15T17:16:14;99303.03;;;5.76
45034;BMP280;30771;47.988;-4.186;2022-12-15T17:18:39;99300.63;;;5.74
45034;BMP280;30771;47.988;-4.186;2022-12-15T17:23:49;99303.03;;;5.76
45034;BMP280;30771;47.988;-4.186;2022-12-15T17:26:22;99301.41;;;5.75
45034;BMP280;30771;47.988;-4.186;2022-12-15T17:28:48;99302.59;;;5.72
45034;BMP280;30771;47.988;-4.186;2022-12-15T17:31:18;99286.16;;;5.72
45034;BMP280;30771;47.988;-4.186;2022-12-15T17:33:43;99290.72;;;5.70
45034;BMP280;30771;47.988;-4.186;2022-12-15T17:36:19;99280.50;;;5.68
45034;BMP280;30771;47.988;-4.186;2022-12-15T17:38:44;99272.69;;;5.68
45034;BMP280;30771;47.988;-4.186;2022-12-15T17:41:12;99280.72;;;5.67
45034;BMP280;30771;47.988;-4.186;2022-12-15T17:43:38;99280.06;;;5.65
45034;BMP280;30771;47.988;-4.186;2022-12-15T17:46:03;99280.28;;;5.63
45034;BMP280;30771;47.988;-4.186;2022-12-15T17:48:28;99275.06;;;5.63
45034;BMP280;30771;47.988;-4.186;2022-12-15T17:50:53;99269.22;;;5.61
45034;BMP280;30771;47.988;-4.186;2022-12-15T17:53:19;99268.41;;;5.61
45034;BMP280;30771;47.988;-4.186;2022-12-15T17:55:45;99252.94;;;5.59
45034;BMP280;30771;47.988;-4.186;2022-12-15T17:58:24;99258.94;;;5.60
45034;BMP280;30771;47.988;-4.186;2022-12-15T18:00:51;99249.53;;;5.59
45034;BMP280;30771;47.988;-4.186;2022-12-15T18:03:16;99238.28;;;5.58
45034;BMP280;30771;47.988;-4.186;2022-12-15T18:05:42;99231.25;;;5.59
45034;BMP280;30771;47.988;-4.186;2022-12-15T18:08:14;99225.22;;;5.58
45034;BMP280;30771;47.988;-4.186;2022-12-15T18:10:40;99221.78;;;5.58
45034;BMP280;30771;47.988;-4.186;2022-12-15T18:13:19;99217.59;;;5.57
45034;BMP280;30771;47.988;-4.186;2022-12-15T18:15:44;99194.88;;;5.57
45034;BMP280;30771;47.988;-4.186;2022-12-15T18:18:10;99190.47;;;5.58
45034;BMP280;30771;47.988;-4.186;2022-12-15T18:20:36;99174.19;;;5.56
45034;BMP280;30771;47.988;-4.186;2022-12-15T18:23:01;99161.16;;;5.56
45034;BMP280;30771;47.988;-4.186;2022-12-15T18:25:27;99154.34;;;5.55
45034;BMP280;30771;47.988;-4.186;2022-12-15T18:27:53;99147.50;;;5.54
45034;BMP280;30771;47.988;-4.186;2022-12-15T18:30:20;99135.44;;;5.53
45034;BMP280;30771;47.988;-4.186;2022-12-15T18:32:45;99131.25;;;5.52
45034;BMP280;30771;47.988;-4.186;2022-12-15T18:35:15;99124.22;;;5.52
45034;BMP280;30771;47.988;-4.186;2022-12-15T18:37:40;99131.25;;;5.52
45034;BMP280;30771;47.988;-4.186;2022-12-15T18:40:11;99122.59;;;5.51
45034;BMP280;30771;47.988;-4.186;2022-12-15T18:42:36;99124.22;;;5.52
45034;BMP280;30771;47.988;-4.186;2022-12-15T18:45:03;99124.41;;;5.51
45034;BMP280;30771;47.988;-4.186;2022-12-15T18:47:28;99129.63;;;5.51
45034;BMP280;30771;47.988;-4.186;2022-12-15T18:49:53;99128.81;;;5.50
45034;BMP280;30771;47.988;-4.186;2022-12-15T18:52:19;99121.81;;;5.51
45034;BMP280;30771;47.988;-4.186;2022-12-15T18:54:46;99141.88;;;5.50
45034;BMP280;30771;47.988;-4.186;2022-12-15T18:57:45;99148.09;;;5.49
45034;BMP280;30771;47.988;-4.186;2022-12-15T19:02:37;99158.09;;;5.46
45034;BMP280;30771;47.988;-4.186;2022-12-15T19:05:02;99158.31;;;5.44
45034;BMP280;30771;47.988;-4.186;2022-12-15T19:07:28;99169.72;;;5.43
45034;BMP280;30771;47.988;-4.186;2022-12-15T19:09:53;99181.97;;;5.43
45034;BMP280;30771;47.988;-4.186;2022-12-15T19:12:18;99195.22;;;5.41
45034;BMP280;30771;47.988;-4.186;2022-12-15T19:14:44;99204.25;;;5.39
45034;BMP280;30771;47.988;-4.186;2022-12-15T19:17:11;99214.91;;;5.37
45034;BMP280;30771;47.988;-4.186;2022-12-15T19:19:37;99224.34;;;5.38
45034;BMP280;30771;47.988;-4.186;2022-12-15T19:22:07;99226.91;;;5.32
45034;BMP280;30771;47.988;-4.186;2022-12-15T19:24:33;99239.59;;;5.35
45034;BMP280;30771;47.988;-4.186;2022-12-15T19:26:58;99241.59;;;5.33
45034;BMP280;30771;47.988;-4.186;2022-12-15T19:29:23;99241.94;;;5.30
45034;BMP280;30771;47.988;-4.186;2022-12-15T19:31:48;99239.50;;;5.28
45034;BMP280;30771;47.988;-4.186;2022-12-15T19:34:14;99243.75;;;5.29
45034;BMP280;30771;47.988;-4.186;2022-12-15T19:36:39;99247.19;;;5.30
45034;BMP280;30771;47.988;-4.186;2022-12-15T19:39:04;99241.94;;;5.30
45034;BMP280;30771;47.988;-4.186;2022-12-15T19:41:31;99243.56;;;5.31
45034;BMP280;30771;47.988;-4.186;2022-12-15T19:43:57;99248.75;;;5.31
45034;BMP280;30771;47.988;-4.186;2022-12-15T19:46:23;99267.22;;;5.29
45034;BMP280;30771;47.988;-4.186;2022-12-15T19:48:48;99250.75;;;5.29
45034;BMP280;30771;47.988;-4.186;2022-12-15T19:51:14;99251.94;;;5.26
45034;BMP280;30771;47.988;-4.186;2022-12-15T19:53:40;99259.78;;;5.26
45034;BMP280;30771;47.988;-4.186;2022-12-15T19:56:05;99247.34;;;5.28
45034;BMP280;30771;47.988;-4.186;2022-12-15T19:58:31;99246.34;;;5.29
45034;BMP280;30771;47.988;-4.186;2022-12-15T20:00:58;99251.22;;;5.32
45034;BMP280;30771;47.988;-4.186;2022-12-15T20:03:24;99255.25;;;5.35
45034;BMP280;30771;47.988;-4.186;2022-12-15T20:05:49;99262.06;;;5.36
45034;BMP280;30771;47.988;-4.186;2022-12-15T20:08:19;99261.06;;;5.37
45034;BMP280;30771;47.988;-4.186;2022-12-15T20:10:45;99270.69;;;5.36
45034;BMP280;30771;47.988;-4.186;2022-12-15T20:13:11;99268.28;;;5.35
45034;BMP280;30771;47.988;-4.186;2022-12-15T20:15:36;99271.06;;;5.33
45034;BMP280;30771;47.988;-4.186;2022-12-15T20:18:01;99270.09;;;5.34
45034;BMP280;30771;47.988;-4.186;2022-12-15T20:20:26;99272.91;;;5.33
45034;BMP280;30771;47.988;-4.186;2022-12-15T20:22:53;99286.94;;;5.32
45034;BMP280;30771;47.988;-4.186;2022-12-15T20:25:20;99288.06;;;5.23
45034;BMP280;30771;47.988;-4.186;2022-12-15T20:27:46;99297.50;;;5.24
45034;BMP280;30771;47.988;-4.186;2022-12-15T20:30:34;99304.13;;;5.20
45034;BMP280;30771;47.988;-4.186;2022-12-15T20:32:58;99314.72;;;5.18
45034;BMP280;30771;47.988;-4.186;2022-12-15T20:35:23;99310.72;;;5.16
45034;BMP280;30771;47.988;-4.186;2022-12-15T20:37:49;99312.69;;;5.14
45034;BMP280;30771;47.988;-4.186;2022-12-15T20:40:16;99319.88;;;5.12
45034;BMP280;30771;47.988;-4.186;2022-12-15T20:42:41;99314.88;;;5.10
45034;BMP280;30771;47.988;-4.186;2022-12-15T20:45:06;99322.84;;;5.09
45034;BMP280;30771;47.988;-4.186;2022-12-15T20:47:31;99327.47;;;5.07
45034;BMP280;30771;47.988;-4.186;2022-12-15T20:49:57;99323.25;;;5.06
45034;BMP280;30771;47.988;-4.186;2022-12-15T20:52:23;99332.69;;;5.07
45034;BMP280;30771;47.988;-4.186;2022-12-15T20:54:49;99336.50;;;5.04
45034;BMP280;30771;47.988;-4.186;2022-12-15T20:57:14;99333.28;;;5.02
45034;BMP280;30771;47.988;-4.186;2022-12-15T20:59:39;99333.63;;;4.99
45034;BMP280;30771;47.988;-4.186;2022-12-15T21:02:15;99330.41;;;4.97
45034;BMP280;30771;47.988;-4.186;2022-12-15T21:04:41;99336.78;;;4.94
45034;BMP280;30771;47.988;-4.186;2022-12-15T21:07:07;99330.78;;;4.94
45034;BMP280;30771;47.988;-4.186;2022-12-15T21:09:33;99332.13;;;4.90
45034;BMP280;30771;47.988;-4.186;2022-12-15T21:11:58;99330.75;;;4.87
45034;BMP280;30771;47.988;-4.186;2022-12-15T21:14:23;99322.31;;;4.85
45034;BMP280;30771;47.988;-4.186;2022-12-15T21:16:48;99334.06;;;4.81
45034;BMP280;30771;47.988;-4.186;2022-12-15T21:19:14;99331.84;;;4.78
45034;BMP280;30771;47.988;-4.186;2022-12-15T21:21:40;99326.19;;;4.75
45034;BMP280;30771;47.988;-4.186;2022-12-15T21:24:17;99323.94;;;4.72
45034;BMP280;30771;47.988;-4.186;2022-12-15T21:26:42;99310.50;;;4.68
45034;BMP280;30771;47.988;-4.186;2022-12-15T21:29:10;99310.88;;;4.65
45034;BMP280;30771;47.988;-4.186;2022-12-15T21:31:36;99302.59;;;4.62
45034;BMP280;30771;47.988;-4.186;2022-12-15T21:34:01;99301.16;;;4.59
45034;BMP280;30771;47.988;-4.186;2022-12-15T21:36:26;99290.31;;;4.56
45034;BMP280;30771;47.988;-4.186;2022-12-15T21:38:51;99292.91;;;4.56
45034;BMP280;30771;47.988;-4.186;2022-12-15T21:41:18;99286.91;;;4.55
45034;BMP280;30771;47.988;-4.186;2022-12-15T21:43:43;99280.09;;;4.54
45034;BMP280;30771;47.988;-4.186;2022-12-15T21:46:11;99279.47;;;4.52
45034;BMP280;30771;47.988;-4.186;2022-12-15T21:48:36;99278.03;;;4.50
45034;BMP280;30771;47.988;-4.186;2022-12-15T21:51:01;99279.22;;;4.47
45034;BMP280;30771;47.988;-4.186;2022-12-15T21:53:27;99282.97;;;4.45
45034;BMP280;30771;47.988;-4.186;2022-12-15T21:55:52;99273.94;;;4.41
45034;BMP280;30771;47.988;-4.186;2022-12-15T21:58:20;99269.06;;;4.38
45034;BMP280;30771;47.988;-4.186;2022-12-15T22:00:46;99260.66;;;4.36
45034;BMP280;30771;47.988;-4.186;2022-12-15T22:03:11;99252.25;;;4.34
45034;BMP280;30771;47.988;-4.186;2022-12-15T22:05:36;99257.66;;;4.32
45034;BMP280;30771;47.988;-4.186;2022-12-15T22:08:19;99250.00;;;4.31
45034;BMP280;30771;47.988;-4.186;2022-12-15T22:10:45;99245.78;;;4.30
45034;BMP280;30771;47.988;-4.186;2022-12-15T22:13:11;99248.41;;;4.30
45034;BMP280;30771;47.988;-4.186;2022-12-15T22:15:38;99250.53;;;4.26
45034;BMP280;30771;47.988;-4.186;2022-12-15T22:18:04;99252.69;;;4.22
45034;BMP280;30771;47.988;-4.186;2022-12-15T22:20:29;99252.88;;;4.21
45034;BMP280;30771;47.988;-4.186;2022-12-15T22:22:54;99252.22;;;4.12